Latest Coastal Weather Observations for Bairnsdale

IDV60701

Issued at 7:33 pm EDT Saturday 31 January 2015 (issued every 10 minutes, with the page automatically refreshed every 10 minutes)

About coastal observations | Map of coastal stations | Coastal observations for VIC | Marine services | Other Formats
Station Details ID: 085279 Name: BAIRNSDALE AIRPORT Lat: -37.88 Lon: 147.57 Height: 49.4 m
Data from the previous 72 hours. | See also: Recent months at Bairnsdale
Date/Time
EDT
Temp

°C
Wind Pressure Rain
since 9am
mm
Weather Cloud Vis
km
Sea
Height
m
Swell
Dir
 
Speed
knots
Gust
knots
hPa Trend Height
m
Period
s
Dir
31/07:30pm 18.3 S 7 9 1009.9 - 0.0 - Cloudy 10 - - - -
31/07:00pm 18.4 S 8 10 1009.6 - 0.0 - Cloudy 10 - - - -
31/06:30pm 18.9 S 9 11 1009.3 - 0.0 - Cloudy 10 - - - -
31/06:00pm 19.5 S 8 10 1009.1 - 0.0 - Cloudy 10 - - - -
31/05:30pm 20.0 SW 7 9 1009.1 - 0.0 - Cloudy 10 - - - -
31/05:00pm 20.1 S 8 11 1009.3 - 0.0 - Partly cloudy 10 - - - -
31/04:30pm 20.3 SW 10 14 1009.2 - 0.0 - Partly cloudy 10 - - - -
31/04:00pm 20.0 SW 12 14 1009.3 - 0.0 - Partly cloudy 10 - - - -
31/03:30pm 19.2 SSW 9 12 1009.4 - 0.0 - Partly cloudy 10 - - - -
31/03:00pm 19.6 SW 9 13 1009.5 - 0.0 - Cloudy 10 - - - -
31/02:30pm 19.0 SW 9 11 1009.6 - 0.0 - Cloudy 10 - - - -
31/02:00pm 18.7 SW 8 10 1009.7 - 0.0 - Partly cloudy 10 - - - -
31/01:30pm 18.2 SW 10 13 1009.9 - 0.0 - Cloudy 10 - - - -
31/01:00pm 17.7 SW 11 14 1009.9 - 0.0 - Cloudy 10 - - - -
31/12:30pm 17.6 SW 11 14 1009.9 - 0.0 - Cloudy 10 - - - -
31/12:00pm 17.7 WSW 10 13 1010.1 - 0.0 - Cloudy 10 - - - -
31/11:30am 17.4 WSW 13 19 1010.1 - 0.0 - Partly cloudy 10 - - - -
31/11:00am 17.3 W 12 16 1010.3 - 0.0 - Partly cloudy 10 - - - -
31/10:30am 16.2 W 10 14 1010.4 - 0.0 - Cloudy 10 - - - -
31/10:00am 15.3 W 11 15 1010.6 - 0.0 - Cloudy 10 - - - -
31/09:30am 14.9 W 11 16 1010.6 - 0.0 - Cloudy 10 - - - -
31/08:30am 14.0 W 9 15 1010.3 - 8.0 - Cloudy 10 - - - -
31/08:00am 13.8 W 9 12 1010.0 - 8.0 - Cloudy 10 - - - -
31/07:30am 13.6 WNW 9 13 1009.9 - 8.0 - Partly cloudy 10 - - - -
31/07:00am 12.9 WNW 8 11 1009.7 - 8.0 - - 10 - - - -
31/06:30am 12.5 WNW 8 10 1009.6 - 8.0 - - 10 - - - -
31/06:00am 12.6 WNW 9 12 1009.4 - 8.0 - Mostly cloudy 10 - - - -
31/05:30am 13.0 W 10 13 1009.3 - 8.0 - - 10 - - - -
31/05:00am 13.2 W 10 13 1009.4 - 8.0 - Partly cloudy 10 - - - -
31/04:30am 13.5 WNW 10 15 1009.4 - 8.0 - Partly cloudy 10 - - - -
31/04:00am 13.5 WNW 9 12 1009.7 - 8.0 - Partly cloudy 10 - - - -
31/03:30am 13.6 W 10 15 1010.0 - 8.0 - Partly cloudy 10 - - - -
31/03:00am 13.5 W 10 13 1010.2 - 8.0 - Cloudy 10 - - - -
31/02:30am 13.5 W 10 13 1010.4 - 8.0 - Cloudy 10 - - - -
31/02:00am 13.4 W 9 13 1010.7 - 8.0 - Cloudy 10 - - - -
31/01:30am 13.3 W 9 11 1010.9 - 8.0 - Cloudy 10 - - - -
31/01:00am 13.2 W 9 11 1011.1 - 8.0 - Cloudy 10 - - - -
31/12:30am 13.2 W 9 10 1011.4 - 8.0 - Cloudy 10 - - - -
 
Date/Time
EDT
Temp

°C
Wind Pressure Rain
since 9am
mm
Weather Cloud Vis
km
Sea
Height
m
Swell
Dir
 
Speed
knots
Gust
knots
hPa Trend Height
m
Period
s
Dir
30/11:30pm 13.2 W 7 9 1011.6 - 8.0 - - 10 - - - -
30/11:00pm 14.0 W 7 9 1011.9 - 8.0 - Partly cloudy 10 - - - -
30/10:30pm 14.1 WSW 7 9 1012.0 - 8.0 - Partly cloudy 10 - - - -
30/10:00pm 14.7 SW 8 10 1012.2 - 8.0 - Partly cloudy 10 - - - -
30/09:30pm 14.6 SW 7 10 1012.2 - 8.0 - Partly cloudy 10 - - - -
30/09:00pm 14.9 SW 8 11 1012.1 - 8.0 - Cloudy 10 - - - -
30/08:30pm 15.2 SW 9 13 1012.0 - 8.0 - Partly cloudy 10 - - - -
30/08:00pm 15.4 SSW 8 12 1012.0 - 8.0 - Partly cloudy 10 - - - -
30/07:30pm 15.6 SW 10 13 1011.9 - 8.0 - Partly cloudy 10 - - - -
30/07:00pm 15.7 SSW 11 15 1011.7 - 8.0 - Partly cloudy 10 - - - -
30/06:30pm 15.7 SSW 13 18 1011.7 - 8.0 - Partly cloudy 10 - - - -
30/06:00pm 15.6 SSW 13 15 1011.9 - 8.0 Recent precip. Cloudy 10 - - - -
30/05:30pm 16.0 SSW 11 15 1012.0 - 7.6 - Partly cloudy 10 - - - -
30/05:00pm 15.9 SW 11 14 1012.4 - 7.6 - Partly cloudy 10 - - - -
30/04:30pm 15.6 SW 12 16 1012.6 - 7.6 - Partly cloudy 10 - - - -
30/04:00pm 15.1 SW 14 19 1012.9 - 7.6 - Partly cloudy 10 - - - -
30/03:30pm 14.8 SW 14 17 1013.0 - 7.6 - Partly cloudy - - - - -
30/03:14pm 14.6 WSW 15 19 1013.1 - 7.6 - Partly cloudy - - - - -
30/03:00pm 14.0 SW 13 18 1013.2 - 7.6 Rain Cloudy - - - - -
30/02:30pm 14.4 SW 13 18 1013.4 - 6.8 - Partly cloudy - - - - -
30/02:08pm 14.2 WSW 12 17 1013.4 - 6.8 - Partly cloudy - - - - -
30/02:06pm 14.3 WSW 12 16 1013.5 - 6.8 - Partly cloudy - - - - -
30/02:00pm 14.4 WSW 13 19 1013.4 - 6.8 - Partly cloudy - - - - -
30/01:30pm 13.9 SW 14 20 1013.5 - 6.4 - Partly cloudy - - - - -
30/01:00pm 14.0 SW 14 19 1013.6 - 6.2 - Partly cloudy - - - - -
30/12:30pm 13.7 SW 14 18 1013.8 - 6.0 - Partly cloudy - - - - -
30/12:00pm 13.7 SW 14 17 1013.9 - 5.8 Rain Cloudy - - - - -
30/11:30am 13.9 SW 11 17 1014.2 - 4.0 - Partly cloudy - - - - -
30/11:00am 12.8 W 10 15 1014.4 - 3.0 - Partly cloudy 3 - - - -
30/10:57am 12.9 W 11 15 1014.4 - 2.0 - Partly cloudy 5 - - - -
30/10:44am 13.1 W 11 15 1014.3 - 0.6 - Partly cloudy 10 - - - -
30/10:43am 13.0 W 11 15 1014.3 - 0.6 - Partly cloudy 10 - - - -
30/10:33am 13.4 W 12 16 1014.4 - 0.6 - Partly cloudy - - - - -
30/10:30am 13.5 W 11 16 1014.5 - 0.6 - Partly cloudy - - - - -
30/10:12am 13.4 WSW 9 13 1014.6 - 0.6 - Partly cloudy 7 - - - -
30/10:02am 13.0 WSW 10 13 1014.6 - 0.4 - Partly cloudy 8 - - - -
30/10:00am 13.1 W 9 12 1014.7 - 0.4 - Partly cloudy 8 - - - -
30/09:30am 12.9 W 10 14 1014.6 - 0.0 - Partly cloudy 10 - - - -
30/09:00am 13.0 WNW 8 11 1014.7 - 1.4 Recent precip. Cloudy 10 - - - -
30/08:34am 12.7 W 7 8 1014.8 - 1.4 - Partly cloudy 10 - - - -
30/08:30am 12.5 W 6 10 1014.8 - 1.4 - Partly cloudy 10 - - - -
30/08:16am 12.4 WSW 8 11 1014.9 - 1.2 - Partly cloudy 5 - - - -
30/08:00am 12.6 WSW 6 9 1014.8 - 0.4 - Partly cloudy 10 - - - -
30/07:30am 12.8 W 8 11 1014.6 - 0.4 - Partly cloudy 10 - - - -
30/07:00am 12.7 W 5 7 1014.6 - 0.4 - Partly cloudy 10 - - - -
30/06:30am 13.9 SSW 6 9 1014.5 - 0.4 - Partly cloudy 10 - - - -
30/06:00am 14.4 S 9 13 1014.5 - 0.4 - Cloudy 10 - - - -
30/05:30am 14.5 S 8 10 1014.2 - 0.4 - Partly cloudy 10 - - - -
30/05:00am 13.7 SW 6 8 1014.2 - 0.4 - Partly cloudy 10 - - - -
30/04:30am 14.0 SSW 7 9 1014.5 - 0.4 - Partly cloudy 10 - - - -
30/04:00am 14.3 SSW 7 11 1014.7 - 0.4 - Partly cloudy 10 - - - -
30/03:30am 14.7 S 10 13 1015.0 - 0.4 - Partly cloudy 10 - - - -
30/03:00am 14.6 S 8 10 1015.4 - 0.4 - Cloudy 10 - - - -
30/02:30am 14.4 S 10 14 1015.8 - 0.4 - - 10 - - - -
30/02:00am 14.3 S 10 13 1015.9 - 0.4 - Partly cloudy 10 - - - -
30/01:30am 13.9 SSW 10 17 1016.1 - 0.4 - Partly cloudy 10 - - - -
30/01:00am 14.3 SSW 7 10 1016.4 - 0.2 - Partly cloudy 10 - - - -
30/12:30am 14.6 S 7 9 1016.7 - 0.2 - Partly cloudy 10 - - - -
30/12:00am 15.1 S 9 13 1017.0 - 0.2 - Cloudy 10 - - - -
 
Date/Time
EDT
Temp

°C
Wind Pressure Rain
since 9am
mm
Weather Cloud Vis
km
Sea
Height
m
Swell
Dir
 
Speed
knots
Gust
knots
hPa Trend Height
m
Period
s
Dir
29/11:30pm 15.2 SSE 8 10 1017.3 - 0.2 - Partly cloudy 10 - - - -
29/11:00pm 15.0 S 8 11 1017.7 - 0.2 - Partly cloudy 10 - - - -
29/10:30pm 14.9 S 8 11 1017.9 - 0.2 - Partly cloudy 10 - - - -
29/10:00pm 15.5 S 10 15 1018.0 - 0.2 - Partly cloudy 10 - - - -
29/09:30pm 15.7 SSE 11 15 1018.0 - 0.2 - Partly cloudy 10 - - - -
29/09:00pm 16.1 SSE 11 14 1017.8 - 0.2 - Cloudy 10 - - - -
29/08:30pm 16.0 SSE 12 17 1017.7 - 0.2 - Partly cloudy 10 - - - -
29/08:00pm 16.4 SSE 13 18 1017.6 - 0.2 - Partly cloudy 10 - - - -
29/07:30pm 17.0 SSE 16 21 1017.4 - 0.2 - Partly cloudy 10 - - - -
29/07:00pm 17.2 SSE 15 22 1017.3 - 0.2 - Partly cloudy 10 - - - -
29/06:42pm 17.5 S 17 27 1017.3 - 0.2 - Partly cloudy 10 - - - -
29/06:30pm 18.0 SSE 17 23 1017.2 - 0.2 - Partly cloudy 10 - - - -
29/06:00pm 18.3 SSE 17 23 1017.2 - 0.2 - Cloudy 10 - - - -
29/05:30pm 18.4 SSE 18 23 1017.3 - 0.2 - Partly cloudy 10 - - - -
29/05:00pm 18.6 SSE 13 18 1017.6 - 0.2 - Partly cloudy 10 - - - -
29/04:30pm 17.4 SSE 18 22 1017.5 - 0.2 - Partly cloudy 10 - - - -
29/04:00pm 17.9 SSE 18 24 1017.6 - 0.2 - Partly cloudy 10 - - - -
29/03:30pm 19.7 SSE 14 22 1017.6 - 0.2 - Partly cloudy 10 - - - -
29/03:00pm 19.3 SE 17 23 1017.9 - 0.2 - Cloudy 10 - - - -
29/02:30pm 17.6 SSE 18 24 1018.0 - 0.2 - Partly cloudy 10 - - - -
29/02:00pm 18.9 SSE 17 22 1018.0 - 0.2 - Partly cloudy 10 - - - -
29/01:30pm 18.3 S 16 23 1018.2 - 0.2 - Partly cloudy 10 - - - -
29/01:00pm 16.2 S 17 24 1018.5 - 0.2 - Partly cloudy 10 - - - -
29/12:30pm 18.8 S 15 21 1018.6 - 0.0 - Partly cloudy 10 - - - -
29/12:00pm 19.0 S 15 21 1018.6 - 0.0 - Cloudy 10 - - - -
29/11:30am 18.9 S 16 21 1018.9 - 0.0 - Partly cloudy 10 - - - -
29/11:00am 17.6 S 16 21 1019.0 - 0.0 - Partly cloudy 10 - - - -
29/10:30am 17.2 S 16 23 1019.0 - 0.0 - Partly cloudy 10 - - - -
29/10:00am 17.4 SSE 14 21 1019.0 - 0.0 - Partly cloudy 10 - - - -
29/09:30am 16.9 S 14 18 1019.1 - 0.0 - Partly cloudy 10 - - - -
29/09:00am 17.0 SSW 15 19 1019.1 - 2.8 - Cloudy 10 - - - -
29/08:30am 16.0 S 13 16 1019.0 - 2.8 - Partly cloudy 10 - - - -
29/08:00am 16.0 SSE 12 17 1018.8 - 2.8 - Partly cloudy 10 - - - -
29/07:30am 15.4 S 10 13 1018.8 - 2.8 - Partly cloudy 10 - - - -
29/07:00am 14.3 S 9 11 1018.6 - 2.8 - - 10 - - - -
29/06:30am 13.7 S 7 10 1018.4 - 2.8 - Partly cloudy 10 - - - -
29/06:00am 14.0 S 7 10 1018.3 - 2.8 - Partly cloudy 10 - - - -
29/05:30am 14.1 SSE 8 11 1018.1 - 2.8 - Partly cloudy 10 - - - -
29/05:00am 14.0 S 9 12 1018.0 - 2.8 - Partly cloudy 10 - - - -
29/04:30am 12.9 SSE 6 7 1018.1 - 2.8 - Partly cloudy 10 - - - -
29/04:00am 13.3 SSE 7 10 1018.2 - 2.8 - Partly cloudy 10 - - - -
29/03:30am 12.4 SSW 5 11 1018.3 - 2.8 - Partly cloudy 10 - - - -
29/03:00am 11.2 WSW 7 8 1018.6 - 2.8 - Mostly cloudy 10 - - - -
29/02:30am 11.3 WSW 5 6 1018.7 - 2.8 - Partly cloudy 10 - - - -
29/02:00am 11.9 NE 5 7 1019.0 - 2.8 - Partly cloudy 10 - - - -
29/01:30am 12.7 ESE 13 17 1019.7 - 1.2 - Partly cloudy 10 - - - -
29/01:00am 13.9 SSE 5 7 1019.6 - 0.8 - Partly cloudy 10 - - - -
29/12:30am 13.9 SSE 11 15 1019.8 - 0.8 - Partly cloudy 10 - - - -
29/12:00am 13.9 SSE 8 10 1019.9 - 0.6 Recent precip. Mostly cloudy 10 - - - -
 
Date/Time
EDT
Temp

°C
Wind Pressure Rain
since 9am
mm
Weather Cloud Vis
km
Sea
Height
m
Swell
Dir
 
Speed
knots
Gust
knots
hPa Trend Height
m
Period
s
Dir
28/11:30pm 13.9 SSE 6 8 1020.1 - 0.0 - Partly cloudy 10 - - - -
28/11:00pm 14.3 SSE 8 9 1020.3 - 0.0 - - 10 - - - -
28/10:30pm 14.9 SE 9 12 1020.5 - 0.0 - - 10 - - - -
28/10:00pm 15.7 SE 9 13 1020.5 - 0.0 - Partly cloudy 10 - - - -
28/09:30pm 15.1 SSE 7 9 1020.3 - 0.0 - Partly cloudy 10 - - - -
28/09:00pm 15.0 SSE 8 10 1020.2 - 0.0 - - 10 - - - -
28/08:30pm 16.2 SSE 11 14 1020.0 - 0.0 - - 10 - - - -
28/08:00pm 16.8 SE 11 15 1019.9 - 0.0 - Partly cloudy 10 - - - -

Other Formats:

Comma delimited format used in spreadsheet applications
http://www.bom.gov.au/fwo/IDV60701/IDV60701.94912.axf

JavaScript Object Notation format (JSON) in row-major order
http://www.bom.gov.au/fwo/IDV60701/IDV60701.94912.json